Springfield, MO (65801)

7:46 PM CDT on August 30, 2016 (GMT -0500)
Stone Meadow | | Change Station

Elev 1253 ft 37.12 °N, 93.31 °W | Updated 22 seconds ago

Scattered Clouds
Scattered Clouds
82.2 °F
Feels Like 88 °F
N
0.0
Wind Variable Wind from South
Gusts 0.0 mph

Today
High -- | Low -- °F
--% Chance of Precip.
Yesterday
High -- | Low -- °F
Precip. -- in
Pressure 30.00 in
Visibility 10.0 miles
Clouds Few 4900 ft
Scattered Clouds 6000 ft
Heat Index 88 °F
Dew Point 73 °F
Humidity 74%
Rainfall 0.04 in
Snow Depth Not available.
6:42 AM 7:43 PM
Waning Crescent, 2% visible
METAR KSGF 302352Z 03013KT 10SM VCTS FEW049 SCT060 30/21 A3004 RMK AO2 LTG DSNT W SLP159 T03000206 10339 20300 56008
Pressure 30.00 in
Visibility 10.0 miles
Clouds Few 4900 ft
Scattered Clouds 6000 ft
Heat Index 88 °F
Dew Point 73 °F
Humidity 74%
Rainfall 0.04 in
Snow Depth Not available.
6:42 AM 7:43 PM
Waning Crescent, 2% visible
METAR KSGF 302352Z 03013KT 10SM VCTS FEW049 SCT060 30/21 A3004 RMK AO2 LTG DSNT W SLP159 T03000206 10339 20300 56008

10-Day Weather Forecast

Almanac

Astronomy

Aug. 30, 2016 Rise Set
Actual Time
Civil Twilight
Nautical Twilight
Astronomical Twilight
Moon
Length of Visible Light
Length of Day
Tomorrow will be .
, % of the Moon is Illuminated

Today's Extremes

State Highs State Lows

Community

WunderPhotos

Upload Photos

1,935,964 photos uploaded!

WunderBlog® & News

Nearby

Air Quality

  Air Quality AQ Index Pollutant
Not available.

Snow Depth

Station Depth Elevation

Earthquake Activity

City Distance Mag. Time & Date
Minimum magnitude displayed is 2.5.

Coastal Water Temperatures

Place Temperature

Stations

Nearby Weather Stations

Station Location Temp. Windchill Dew Point Humidity Wind Precip. Elev Updated Type
                   

Watches & Warnings

There are currently no watches in effect.